createdAt,value
2018-09-14T00:00:18.921Z,100620.48
2018-09-14T00:02:48.146Z,100624.18
2018-09-14T00:05:18.261Z,100623.42
2018-09-14T00:07:47.451Z,100627.85
2018-09-14T00:10:17.428Z,100623.87
2018-09-14T00:12:46.616Z,100622.95
2018-09-14T00:15:18.375Z,100623.33
2018-09-14T00:17:47.566Z,100626.72
2018-09-14T00:20:18.119Z,100622.11
2018-09-14T00:22:47.339Z,100625.20
2018-09-14T00:25:17.828Z,100619.47
2018-09-14T00:27:47.024Z,100614.27
2018-09-14T00:30:18.311Z,100611.67
2018-09-14T00:32:47.609Z,100613.89
2018-09-14T00:35:19.069Z,100614.72
2018-09-14T00:37:48.227Z,100617.36
2018-09-14T00:40:18.068Z,100622.83
2018-09-14T00:42:47.293Z,100616.63
2018-09-14T00:45:17.575Z,100619.77
2018-09-14T00:47:46.746Z,100624.96
2018-09-14T00:50:17.831Z,100618.66
2018-09-14T00:52:47.069Z,100616.23
2018-09-14T00:55:17.799Z,100619.96
2018-09-14T00:57:47.020Z,100622.89
2018-09-14T01:00:17.587Z,100620.98
2018-09-14T01:02:47.004Z,100624.23
2018-09-14T01:05:18.381Z,100620.08
2018-09-14T01:07:47.556Z,100620.93
2018-09-14T01:10:18.818Z,100618.30
2018-09-14T01:12:48.107Z,100621.31
2018-09-14T01:15:17.703Z,100620.41
2018-09-14T01:17:46.895Z,100620.32
2018-09-14T01:20:18.349Z,100619.79
2018-09-14T01:22:47.548Z,100618.98
2018-09-14T01:25:17.334Z,100618.80
2018-09-14T01:27:47.702Z,100608.89
2018-09-14T01:30:18.313Z,100619.02
2018-09-14T01:32:47.612Z,100615.91
2018-09-14T01:35:23.496Z,100622.16
2018-09-14T01:37:52.691Z,100620.65
2018-09-14T01:40:22.028Z,100619.57
2018-09-14T01:42:51.280Z,100615.77
2018-09-14T01:45:20.654Z,100617.09
2018-09-14T01:47:49.863Z,100616.05
2018-09-14T01:50:21.979Z,100615.68
2018-09-14T01:52:51.181Z,100614.79
2018-09-14T01:55:20.678Z,100618.10
2018-09-14T01:57:49.924Z,100617.27
2018-09-14T02:00:19.287Z,100610.48
2018-09-14T02:02:48.480Z,100618.44
2018-09-14T02:05:18.098Z,100605.89
2018-09-14T02:07:47.294Z,100610.88
2018-09-14T02:10:22.154Z,100614.74
2018-09-14T02:12:52.338Z,100599.44
2018-09-14T02:15:21.712Z,100612.04
2018-09-14T02:17:50.886Z,100603.20
2018-09-14T02:20:20.297Z,100599.13
2018-09-14T02:22:49.678Z,100596.75
2018-09-14T02:25:19.244Z,100590.91
2018-09-14T02:27:48.428Z,100587.69
2018-09-14T02:30:17.937Z,100589.14
2018-09-14T02:32:50.052Z,100586.77
2018-09-14T02:35:20.310Z,100579.91
2018-09-14T02:37:49.511Z,100585.00
2018-09-14T02:40:19.996Z,100585.75
2018-09-14T02:42:49.163Z,100588.23
2018-09-14T02:45:19.571Z,100591.56
2018-09-14T02:47:48.789Z,100597.10
2018-09-14T02:50:18.323Z,100599.95
2018-09-14T02:52:47.506Z,100605.82
2018-09-14T02:55:18.607Z,100600.40
2018-09-14T02:57:47.811Z,100604.03
2018-09-14T03:00:18.130Z,100598.10
2018-09-14T03:02:47.243Z,100596.13
2018-09-14T03:05:17.123Z,100602.16
2018-09-14T03:07:46.297Z,100611.52
2018-09-14T03:10:17.449Z,100614.16
2018-09-14T03:12:47.709Z,100604.77
2018-09-14T03:15:18.538Z,100600.04
2018-09-14T03:17:47.817Z,100603.64
2018-09-14T03:20:18.860Z,100600.85
2018-09-14T03:22:48.119Z,100599.28
2018-09-14T03:25:17.674Z,100596.65
2018-09-14T03:27:46.939Z,100604.08
2018-09-14T03:30:17.728Z,100601.91
2018-09-14T03:32:46.900Z,100603.31
2018-09-14T03:35:16.743Z,100601.47
2018-09-14T03:37:45.941Z,100604.60
2018-09-14T03:40:16.200Z,100602.66
2018-09-14T03:42:45.412Z,100611.98
2018-09-14T03:45:15.772Z,100610.77
2018-09-14T03:47:44.972Z,100616.27
2018-09-14T03:50:15.788Z,100607.80
2018-09-14T03:52:45.003Z,100615.57
2018-09-14T03:55:15.948Z,100618.40
2018-09-14T03:57:45.192Z,100605.05
2018-09-14T04:00:16.275Z,100609.72
2018-09-14T04:02:45.479Z,100614.42
2018-09-14T04:05:15.907Z,100616.00
2018-09-14T04:07:45.235Z,100611.86
2018-09-14T04:10:15.713Z,100613.34
2018-09-14T04:12:44.959Z,100616.05
2018-09-14T04:15:14.768Z,100612.08
2018-09-14T04:17:43.937Z,100617.58
2018-09-14T04:20:13.189Z,100618.61
2018-09-14T04:22:43.472Z,100626.72
2018-09-14T04:25:13.549Z,100625.77
2018-09-14T04:27:42.733Z,100630.55
2018-09-14T04:30:11.940Z,100631.82
2018-09-14T04:32:41.199Z,100635.78
2018-09-14T04:35:10.460Z,100633.69
2018-09-14T04:37:39.676Z,100640.35
2018-09-14T04:40:08.973Z,100635.69
2018-09-14T04:42:38.192Z,100636.91
2018-09-14T04:45:07.425Z,100638.36
2018-09-14T04:47:36.651Z,100643.48
2018-09-14T04:50:06.136Z,100638.08
2018-09-14T04:52:35.356Z,100641.30
2018-09-14T04:55:04.695Z,100641.18
2018-09-14T04:57:34.033Z,100640.05
2018-09-14T05:00:03.260Z,100637.34
2018-09-14T05:02:32.453Z,100639.83
2018-09-14T05:05:01.650Z,100636.61
2018-09-14T05:07:30.863Z,100638.17
2018-09-14T05:10:00.094Z,100636.91
2018-09-14T05:12:29.344Z,100644.09
2018-09-14T05:14:58.615Z,100645.25
2018-09-14T05:17:27.856Z,100650.87
2018-09-14T05:19:57.030Z,100642.34
2018-09-14T05:22:26.283Z,100647.81
2018-09-14T05:24:55.510Z,100648.45
2018-09-14T05:27:24.697Z,100651.77
2018-09-14T05:29:53.916Z,100649.28
2018-09-14T05:32:23.260Z,100655.94
2018-09-14T05:34:52.406Z,100653.77
2018-09-14T05:37:21.638Z,100648.98
2018-09-14T05:39:50.822Z,100653.86
2018-09-14T05:42:20.107Z,100648.58
2018-09-14T05:44:49.315Z,100652.30
2018-09-14T05:47:18.555Z,100656.22
2018-09-14T05:49:47.715Z,100656.22
2018-09-14T05:52:16.930Z,100667.03
2018-09-14T05:54:46.130Z,100659.66
2018-09-14T05:57:15.352Z,100656.92
2018-09-14T05:59:44.578Z,100657.36
2018-09-14T06:02:13.859Z,100655.61
2018-09-14T06:04:43.023Z,100656.84
2018-09-14T06:07:12.263Z,100654.05
2018-09-14T06:09:41.519Z,100664.50
2018-09-14T06:12:10.762Z,100661.24
2018-09-14T06:14:39.927Z,100668.80
2018-09-14T06:17:09.522Z,100668.16
2018-09-14T06:19:38.630Z,100670.52
2018-09-14T06:22:08.331Z,100665.19
2018-09-14T06:24:37.584Z,100676.53
2018-09-14T06:27:07.219Z,100668.99
2018-09-14T06:29:36.430Z,100680.52
2018-09-14T06:32:05.695Z,100677.14
2018-09-14T06:34:34.848Z,100682.69
2018-09-14T06:37:04.129Z,100681.27
2018-09-14T06:39:34.792Z,100680.22
2018-09-14T06:42:04.010Z,100681.86
2018-09-14T06:44:33.243Z,100686.44
2018-09-14T06:47:02.509Z,100678.17
2018-09-14T06:49:31.703Z,100667.80
2018-09-14T06:52:01.693Z,100656.59
2018-09-14T06:54:31.260Z,100654.68
2018-09-14T06:57:00.470Z,100649.69
2018-09-14T06:59:32.431Z,100647.32
2018-09-14T07:02:01.886Z,100652.34
2018-09-14T07:04:31.867Z,100668.92
2018-09-14T07:07:01.099Z,100666.80
2018-09-14T07:09:30.399Z,100670.78
2018-09-14T07:11:59.627Z,100671.58
2018-09-14T07:14:28.794Z,100668.97
2018-09-14T07:16:58.041Z,100676.08
2018-09-14T07:19:27.248Z,100676.66
2018-09-14T07:21:56.653Z,100678.89
2018-09-14T07:24:25.685Z,100684.13
2018-09-14T07:26:54.905Z,100680.02
2018-09-14T07:29:25.002Z,100680.44
2018-09-14T07:31:54.445Z,100685.33
2018-09-14T07:34:23.538Z,100682.13
2018-09-14T07:36:52.813Z,100691.27
2018-09-14T07:39:22.082Z,100693.86
2018-09-14T07:41:51.411Z,100694.25
2018-09-14T07:44:20.635Z,100696.32
2018-09-14T07:46:49.932Z,100692.78
2018-09-14T07:49:19.286Z,100701.66
2018-09-14T07:51:48.598Z,100700.56
2018-09-14T07:54:17.819Z,100701.35
2018-09-14T07:56:47.108Z,100702.48
2018-09-14T07:59:16.330Z,100710.11
2018-09-14T08:01:45.582Z,100717.98
2018-09-14T08:04:14.803Z,100711.85
2018-09-14T08:06:44.060Z,100720.88
2018-09-14T08:09:14.143Z,100709.20
2018-09-14T08:11:43.531Z,100712.97
2018-09-14T08:14:12.736Z,100701.86
2018-09-14T08:16:41.990Z,100707.91
2018-09-14T08:19:11.461Z,100714.67
2018-09-14T08:21:40.867Z,100711.31
2018-09-14T08:24:10.428Z,100709.86
2018-09-14T08:26:39.636Z,100704.59
2018-09-14T08:29:10.167Z,100703.36
2018-09-14T08:31:39.416Z,100706.12
2018-09-14T08:34:09.217Z,100709.27
2018-09-14T08:36:38.456Z,100706.81
2018-09-14T08:39:12.425Z,100707.34
2018-09-14T08:41:41.643Z,100708.80
2018-09-14T08:44:10.905Z,100707.46
2018-09-14T08:46:40.119Z,100702.10
2018-09-14T08:49:09.780Z,100705.97
2018-09-14T08:51:38.987Z,100696.48
2018-09-14T08:54:08.717Z,100702.31
2018-09-14T08:56:38.009Z,100718.37
2018-09-14T08:59:07.970Z,100711.73
2018-09-14T09:01:37.220Z,100714.11
2018-09-14T09:04:06.826Z,100719.17
2018-09-14T09:06:36.037Z,100709.83
2018-09-14T09:09:09.257Z,100713.67
2018-09-14T09:11:38.463Z,100718.59
2018-09-14T09:14:08.310Z,100720.54
2018-09-14T09:16:38.220Z,100713.75
2018-09-14T09:19:07.523Z,100705.80
2018-09-14T09:21:36.876Z,100706.77
2018-09-14T09:24:06.100Z,100697.97
2018-09-14T09:26:35.291Z,100690.15
2018-09-14T09:29:04.588Z,100685.48
2018-09-14T09:31:33.819Z,100683.26
2018-09-14T09:34:03.022Z,100681.98
2018-09-14T09:36:32.287Z,100687.50
2018-09-14T09:39:01.507Z,100695.19
2018-09-14T09:41:30.701Z,100686.66
2018-09-14T09:43:59.935Z,100683.20
2018-09-14T09:46:29.175Z,100685.39
2018-09-14T09:48:58.453Z,100695.39
2018-09-14T09:51:27.976Z,100694.52
2018-09-14T09:53:57.199Z,100693.03
2018-09-14T09:56:26.481Z,100689.78
2018-09-14T09:58:55.712Z,100692.59
2018-09-14T10:01:30.511Z,100694.23
2018-09-14T10:04:05.784Z,100689.25
2018-09-14T10:06:36.377Z,100685.83
2018-09-14T10:09:11.149Z,100683.17
2018-09-14T10:11:41.662Z,100686.20
2018-09-14T10:14:13.201Z,100682.66
2018-09-14T10:16:42.479Z,100681.42
2018-09-14T10:19:11.720Z,100679.38
2018-09-14T10:21:41.015Z,100678.08
2018-09-14T10:24:11.239Z,100674.66
2018-09-14T10:26:43.387Z,100675.94
2018-09-14T10:29:12.650Z,100672.39
2018-09-14T10:31:41.891Z,100678.02
2018-09-14T10:34:11.722Z,100674.09
2018-09-14T10:36:40.958Z,100676.38
2018-09-14T10:39:11.713Z,100674.53
2018-09-14T10:41:40.955Z,100670.61
2018-09-14T10:44:10.602Z,100664.72
2018-09-14T10:46:39.853Z,100660.94
2018-09-14T10:49:09.526Z,100660.76
2018-09-14T10:51:38.762Z,100651.64
2018-09-14T10:54:08.555Z,100653.13
2018-09-14T10:56:37.707Z,100651.05
2018-09-14T10:59:07.243Z,100640.75
2018-09-14T11:01:36.469Z,100638.81
2018-09-14T11:04:05.902Z,100639.10
2018-09-14T11:06:35.200Z,100631.20
2018-09-14T11:09:07.233Z,100631.69
2018-09-14T11:11:36.438Z,100624.31
2018-09-14T11:14:05.736Z,100623.40
2018-09-14T11:16:35.040Z,100624.25
2018-09-14T11:19:04.295Z,100614.06
2018-09-14T11:21:33.790Z,100615.03
2018-09-14T11:24:03.248Z,100610.23
2018-09-14T11:26:32.595Z,100608.38
2018-09-14T11:29:01.814Z,100609.73
2018-09-14T11:31:31.023Z,100603.94
2018-09-14T11:34:00.241Z,100605.31
2018-09-14T11:36:29.444Z,100602.94
2018-09-14T11:38:58.635Z,100597.31
2018-09-14T11:41:27.878Z,100593.59
2018-09-14T11:43:57.071Z,100595.52
2018-09-14T11:46:26.331Z,100594.30
2018-09-14T11:48:55.657Z,100584.56
2018-09-14T11:51:24.909Z,100587.20
2018-09-14T11:53:54.111Z,100582.02
2018-09-14T11:56:23.351Z,100583.05
2018-09-14T11:58:52.588Z,100580.14
2018-09-14T12:01:21.832Z,100580.91
2018-09-14T12:03:51.022Z,100578.22
2018-09-14T12:06:20.235Z,100578.02
2018-09-14T12:08:49.482Z,100581.38
2018-09-14T12:11:18.746Z,100577.81
2018-09-14T12:13:47.955Z,100573.98
2018-09-14T12:16:17.176Z,100570.52
2018-09-14T12:18:46.393Z,100569.53
2018-09-14T12:21:15.631Z,100558.70
2018-09-14T12:23:44.854Z,100565.27
2018-09-14T12:26:14.080Z,100556.24
2018-09-14T12:28:43.327Z,100546.11
2018-09-14T12:31:12.588Z,100548.30
2018-09-14T12:33:41.849Z,100545.27
2018-09-14T12:36:11.134Z,100549.16
2018-09-14T12:38:40.361Z,100546.68
2018-09-14T12:41:10.019Z,100545.57
2018-09-14T12:43:39.239Z,100550.77
2018-09-14T12:46:08.903Z,100552.13
2018-09-14T12:48:38.145Z,100549.88
2018-09-14T12:51:07.961Z,100556.39
2018-09-14T12:53:37.110Z,100553.08
2018-09-14T12:56:06.801Z,100551.02
2018-09-14T12:58:35.985Z,100548.25
2018-09-14T13:01:05.407Z,100555.52
2018-09-14T13:03:34.679Z,100553.02
2018-09-14T13:06:03.950Z,100553.55
2018-09-14T13:08:33.123Z,100558.48
2018-09-14T13:11:02.353Z,100558.77
2018-09-14T13:13:31.540Z,100552.84
2018-09-14T13:16:00.815Z,100555.41
2018-09-14T13:18:30.275Z,100557.20
2018-09-14T13:20:59.552Z,100550.89
2018-09-14T13:23:28.723Z,100545.70
2018-09-14T13:25:58.029Z,100547.20
2018-09-14T13:28:27.291Z,100547.81
2018-09-14T13:30:56.502Z,100544.14
2018-09-14T13:33:25.731Z,100538.72
2018-09-14T13:35:55.878Z,100533.25
2018-09-14T13:38:25.066Z,100539.35
2018-09-14T13:40:54.295Z,100530.01
2018-09-14T13:43:23.553Z,100530.59
2018-09-14T13:45:52.873Z,100524.30
2018-09-14T13:48:22.039Z,100523.16
2018-09-14T13:50:51.304Z,100515.77
2018-09-14T13:53:20.639Z,100520.15
2018-09-14T13:55:49.908Z,100513.07
2018-09-14T13:58:19.207Z,100514.98
2018-09-14T14:00:48.433Z,100518.20
2018-09-14T14:03:17.590Z,100521.11
2018-09-14T14:05:47.376Z,100513.79
2018-09-14T14:08:16.510Z,100515.09
2018-09-14T14:10:45.751Z,100511.89
2018-09-14T14:13:14.998Z,100505.19
2018-09-14T14:15:44.217Z,100503.23
2018-09-14T14:18:13.541Z,100510.30
2018-09-14T14:20:42.809Z,100520.85
2018-09-14T14:23:12.096Z,100512.05
2018-09-14T14:25:41.299Z,100509.81
2018-09-14T14:28:10.540Z,100518.66
2018-09-14T14:30:39.816Z,100505.53
2018-09-14T14:33:09.218Z,100501.18
2018-09-14T14:35:38.597Z,100501.06
2018-09-14T14:38:08.337Z,100497.98
2018-09-14T14:40:37.767Z,100498.73
2018-09-14T14:43:07.700Z,100497.30
2018-09-14T14:45:36.931Z,100491.88
2018-09-14T14:48:06.429Z,100488.09
2018-09-14T14:50:35.653Z,100482.50
2018-09-14T14:53:04.835Z,100477.61
2018-09-14T14:55:34.112Z,100477.81
2018-09-14T14:58:03.559Z,100475.84
2018-09-14T15:00:32.938Z,100471.46
2018-09-14T15:03:02.139Z,100469.22
2018-09-14T15:05:31.420Z,100465.07
2018-09-14T15:08:00.643Z,100465.53
2018-09-14T15:10:30.054Z,100467.17
2018-09-14T15:12:59.213Z,100464.13
2018-09-14T15:15:28.467Z,100462.53
2018-09-14T15:17:57.676Z,100465.68
2018-09-14T15:20:26.921Z,100461.59
2018-09-14T15:22:56.136Z,100460.20
2018-09-14T15:25:26.233Z,100462.73
2018-09-14T15:27:55.444Z,100459.77
2018-09-14T15:30:24.694Z,100465.13
2018-09-14T15:32:54.010Z,100460.63
2018-09-14T15:35:23.318Z,100465.19
2018-09-14T15:37:52.572Z,100463.31
2018-09-14T15:40:21.863Z,100471.29
2018-09-14T15:42:51.121Z,100475.94
2018-09-14T15:45:20.335Z,100468.38
2018-09-14T15:47:49.703Z,100457.67
2018-09-14T15:50:18.960Z,100459.77
2018-09-14T15:52:48.175Z,100461.84
2018-09-14T15:55:17.463Z,100462.14
2018-09-14T15:57:46.690Z,100463.50
2018-09-14T16:00:15.997Z,100464.87
2018-09-14T16:02:45.259Z,100461.64
2018-09-14T16:05:14.423Z,100455.85
2018-09-14T16:07:43.619Z,100458.02
2018-09-14T16:10:13.009Z,100460.96
2018-09-14T16:12:42.249Z,100460.05
2018-09-14T16:15:11.827Z,100455.62
2018-09-14T16:17:41.039Z,100458.03
2018-09-14T16:20:11.236Z,100457.27
2018-09-14T16:22:40.459Z,100461.12
2018-09-14T16:25:10.394Z,100455.64
2018-09-14T16:27:39.727Z,100458.13
2018-09-14T16:30:09.535Z,100454.90
2018-09-14T16:32:39.084Z,100451.18
2018-09-14T16:35:08.951Z,100456.66
2018-09-14T16:37:38.188Z,100458.00
2018-09-14T16:40:08.710Z,100462.09
2018-09-14T16:42:37.919Z,100465.56
2018-09-14T16:45:07.218Z,100469.20
2018-09-14T16:47:36.430Z,100460.45
2018-09-14T16:50:05.740Z,100463.09
2018-09-14T16:52:34.971Z,100466.38
2018-09-14T16:55:04.282Z,100468.99
2018-09-14T16:57:33.605Z,100473.05
2018-09-14T17:00:02.811Z,100472.52
2018-09-14T17:02:32.045Z,100472.09
2018-09-14T17:05:01.223Z,100473.44
2018-09-14T17:07:30.432Z,100480.23
2018-09-14T17:09:59.632Z,100483.33
2018-09-14T17:12:28.836Z,100481.66
2018-09-14T17:14:57.988Z,100481.27
2018-09-14T17:17:27.246Z,100488.45
2018-09-14T17:19:56.410Z,100492.75
2018-09-14T17:22:25.635Z,100487.24
2018-09-14T17:24:54.839Z,100489.41
2018-09-14T17:27:24.242Z,100497.33
2018-09-14T17:29:53.405Z,100499.09
2018-09-14T17:32:22.655Z,100495.17
2018-09-14T17:34:51.841Z,100495.57
2018-09-14T17:37:21.039Z,100491.23
2018-09-14T17:39:50.210Z,100491.03
2018-09-14T17:42:19.521Z,100497.73
2018-09-14T17:44:48.752Z,100497.73
2018-09-14T17:47:17.973Z,100500.67
2018-09-14T17:49:47.227Z,100505.72
2018-09-14T17:52:16.495Z,100504.96
2018-09-14T17:54:45.981Z,100505.78
2018-09-14T17:57:15.204Z,100506.73
2018-09-14T17:59:44.423Z,100503.98
2018-09-14T18:02:13.700Z,100499.19
2018-09-14T18:04:42.900Z,100497.20
2018-09-14T18:07:12.611Z,100495.89
2018-09-14T18:09:41.948Z,100496.88
2018-09-14T18:12:11.180Z,100494.91
2018-09-14T18:14:40.369Z,100504.72
2018-09-14T18:17:09.606Z,100508.45
2018-09-14T18:19:38.774Z,100510.06
2018-09-14T18:22:08.126Z,100519.16
2018-09-14T18:24:37.379Z,100519.30
2018-09-14T18:27:06.885Z,100524.96
2018-09-14T18:29:36.614Z,100519.70
2018-09-14T18:32:05.958Z,100522.78
2018-09-14T18:34:35.507Z,100529.98
2018-09-14T18:37:04.743Z,100523.67
2018-09-14T18:39:33.943Z,100532.77
2018-09-14T18:42:03.123Z,100529.77
2018-09-14T18:44:32.624Z,100532.13
2018-09-14T18:47:01.807Z,100532.02
2018-09-14T18:49:31.038Z,100540.19
2018-09-14T18:52:00.327Z,100540.55
2018-09-14T18:54:29.543Z,100547.03
2018-09-14T18:56:59.943Z,100544.70
2018-09-14T18:59:29.203Z,100546.84
2018-09-14T19:01:58.403Z,100550.03
2018-09-14T19:04:27.842Z,100551.71
2018-09-14T19:06:58.374Z,100546.94
2018-09-14T19:09:27.646Z,100543.23
2018-09-14T19:11:56.966Z,100534.73
2018-09-14T19:14:26.132Z,100539.98
2018-09-14T19:16:55.339Z,100534.81
2018-09-14T19:19:24.664Z,100539.92
2018-09-14T19:21:53.914Z,100545.74
2018-09-14T19:24:27.379Z,100555.87
2018-09-14T19:27:22.291Z,100560.08
2018-09-14T19:29:51.558Z,100563.70
2018-09-14T19:32:20.784Z,100560.38
2018-09-14T19:34:50.046Z,100562.05
2018-09-14T19:37:19.186Z,100562.63
2018-09-14T19:39:48.413Z,100559.84
2018-09-14T19:42:17.870Z,100560.08
2018-09-14T19:44:47.053Z,100561.98
2018-09-14T19:47:16.785Z,100557.52
2018-09-14T19:49:46.148Z,100559.86
2018-09-14T19:52:16.079Z,100558.95
2018-09-14T19:54:45.301Z,100563.72
2018-09-14T19:57:15.216Z,100564.75
2018-09-14T19:59:44.473Z,100563.92
2018-09-14T20:02:14.375Z,100565.03
2018-09-14T20:04:48.009Z,100568.33
2018-09-14T20:07:17.697Z,100571.95
2018-09-14T20:09:46.878Z,100573.08
2018-09-14T20:12:16.239Z,100570.94
2018-09-14T20:14:45.498Z,100568.47
2018-09-14T20:17:15.460Z,100576.37
2018-09-14T20:19:44.699Z,100580.98
2018-09-14T20:22:14.955Z,100574.72
2018-09-14T20:24:44.167Z,100573.70
2018-09-14T20:27:14.034Z,100568.31
2018-09-14T20:29:43.269Z,100577.25
2018-09-14T20:32:12.612Z,100568.70
2018-09-14T20:34:41.747Z,100566.16
2018-09-14T20:37:10.997Z,100562.63
2018-09-14T20:39:40.119Z,100565.59
2018-09-14T20:42:09.399Z,100572.98
2018-09-14T20:44:38.553Z,100576.25
2018-09-14T20:47:07.787Z,100568.53
2018-09-14T20:49:36.973Z,100574.59
2018-09-14T20:52:06.420Z,100569.11
2018-09-14T20:54:35.664Z,100578.52
2018-09-14T20:57:04.927Z,100578.31
2018-09-14T20:59:34.106Z,100580.42
2018-09-14T21:02:04.016Z,100581.62
2018-09-14T21:04:33.700Z,100579.84
2018-09-14T21:07:02.954Z,100584.69
2018-09-14T21:09:32.148Z,100588.22
2018-09-14T21:12:01.341Z,100590.05
2018-09-14T21:14:30.521Z,100595.78
2018-09-14T21:16:59.909Z,100598.03
2018-09-14T21:19:29.791Z,100599.37
2018-09-14T21:21:59.008Z,100601.28
2018-09-14T21:24:28.378Z,100601.37
2018-09-14T21:26:57.660Z,100607.20
2018-09-14T21:29:26.879Z,100608.61
2018-09-14T21:31:56.143Z,100611.91
2018-09-14T21:34:25.356Z,100625.12
2018-09-14T21:36:54.571Z,100621.62
2018-09-14T21:39:24.589Z,100630.92
2018-09-14T21:41:53.867Z,100633.64
2018-09-14T21:44:23.048Z,100636.98
2018-09-14T21:46:52.219Z,100639.59
2018-09-14T21:49:21.471Z,100640.84
2018-09-14T21:51:50.739Z,100643.11
2018-09-14T21:54:20.171Z,100646.88
2018-09-14T21:56:49.681Z,100642.42
2018-09-14T21:59:19.002Z,100645.27
2018-09-14T22:01:48.232Z,100649.83
2018-09-14T22:04:18.919Z,100650.52
2018-09-14T22:06:48.205Z,100660.74
2018-09-14T22:09:17.650Z,100659.20
2018-09-14T22:11:46.929Z,100655.62
2018-09-14T22:14:16.426Z,100662.64
2018-09-14T22:16:45.630Z,100661.14
2018-09-14T22:19:15.395Z,100672.06
2018-09-14T22:21:45.001Z,100673.49
2018-09-14T22:24:14.679Z,100677.20
2018-09-14T22:26:43.906Z,100679.67
2018-09-14T22:29:13.744Z,100684.14
2018-09-14T22:31:42.927Z,100678.48
2018-09-14T22:34:12.144Z,100674.55
2018-09-14T22:36:41.411Z,100670.99
2018-09-14T22:39:12.952Z,100667.85
2018-09-14T22:41:42.188Z,100664.92
2018-09-14T22:44:11.468Z,100664.59
2018-09-14T22:46:40.669Z,100664.06
2018-09-14T22:49:09.858Z,100668.06
2018-09-14T22:51:39.099Z,100680.25
2018-09-14T22:54:08.337Z,100681.39
2018-09-14T22:56:37.538Z,100685.72
2018-09-14T22:59:06.772Z,100685.42
2018-09-14T23:01:36.012Z,100688.35
2018-09-14T23:04:05.211Z,100685.39
2018-09-14T23:06:34.535Z,100685.79
2018-09-14T23:09:03.959Z,100690.23
2018-09-14T23:11:33.183Z,100685.34
2018-09-14T23:14:02.383Z,100686.30
2018-09-14T23:16:31.635Z,100688.13
2018-09-14T23:19:00.843Z,100685.97
2018-09-14T23:21:30.103Z,100681.55
2018-09-14T23:23:59.290Z,100681.28
2018-09-14T23:26:29.103Z,100681.37
2018-09-14T23:28:58.307Z,100685.73
2018-09-14T23:31:27.576Z,100685.92
2018-09-14T23:33:56.775Z,100684.49
2018-09-14T23:36:26.062Z,100694.95
2018-09-14T23:41:58.034Z,100710.05
2018-09-14T23:44:27.283Z,100713.37
2018-09-14T23:46:56.530Z,100714.11
2018-09-14T23:49:25.716Z,100717.98
2018-09-14T23:51:54.937Z,100718.56
2018-09-14T23:54:24.323Z,100720.94
2018-09-14T23:56:53.579Z,100712.66
2018-09-14T23:59:22.830Z,100712.54
